sensor_id;sensor_type;location;lat;lon;timestamp;P1;durP1;ratioP1;P2;durP2;ratioP2
24357;SDS011;13668;52.154;5.580;2022-08-24T00:02:02;21.40;;;19.30;;
24357;SDS011;13668;52.154;5.580;2022-08-24T00:04:28;22.23;;;19.92;;
24357;SDS011;13668;52.154;5.580;2022-08-24T00:06:54;21.00;;;18.83;;
24357;SDS011;13668;52.154;5.580;2022-08-24T00:09:20;22.67;;;20.35;;
24357;SDS011;13668;52.154;5.580;2022-08-24T00:11:46;22.15;;;19.98;;
24357;SDS011;13668;52.154;5.580;2022-08-24T00:14:12;20.50;;;18.50;;
24357;SDS011;13668;52.154;5.580;2022-08-24T00:16:38;21.90;;;19.33;;
24357;SDS011;13668;52.154;5.580;2022-08-24T00:19:04;23.65;;;21.15;;
24357;SDS011;13668;52.154;5.580;2022-08-24T00:21:30;24.45;;;20.95;;
24357;SDS011;13668;52.154;5.580;2022-08-24T00:23:57;23.13;;;20.58;;
24357;SDS011;13668;52.154;5.580;2022-08-24T00:26:23;23.95;;;21.10;;
24357;SDS011;13668;52.154;5.580;2022-08-24T00:28:49;23.13;;;20.75;;
24357;SDS011;13668;52.154;5.580;2022-08-24T00:31:15;24.17;;;21.20;;
24357;SDS011;13668;52.154;5.580;2022-08-24T00:33:41;22.00;;;19.95;;
24357;SDS011;13668;52.154;5.580;2022-08-24T00:36:07;22.92;;;20.55;;
24357;SDS011;13668;52.154;5.580;2022-08-24T00:38:33;24.40;;;21.85;;
24357;SDS011;13668;52.154;5.580;2022-08-24T00:41:00;22.98;;;19.98;;
24357;SDS011;13668;52.154;5.580;2022-08-24T00:43:26;22.42;;;20.10;;
24357;SDS011;13668;52.154;5.580;2022-08-24T00:48:22;23.58;;;21.08;;
24357;SDS011;13668;52.154;5.580;2022-08-24T00:50:53;24.35;;;21.77;;
24357;SDS011;13668;52.154;5.580;2022-08-24T00:53:30;22.25;;;19.95;;
24357;SDS011;13668;52.154;5.580;2022-08-24T00:55:58;22.17;;;19.85;;
24357;SDS011;13668;52.154;5.580;2022-08-24T00:58:27;23.08;;;20.77;;
24357;SDS011;13668;52.154;5.580;2022-08-24T01:00:58;23.45;;;20.95;;
24357;SDS011;13668;52.154;5.580;2022-08-24T01:03:26;22.25;;;19.42;;
24357;SDS011;13668;52.154;5.580;2022-08-24T01:05:52;21.38;;;19.13;;
24357;SDS011;13668;52.154;5.580;2022-08-24T01:08:20;22.58;;;20.35;;
24357;SDS011;13668;52.154;5.580;2022-08-24T01:10:51;21.92;;;19.70;;
24357;SDS011;13668;52.154;5.580;2022-08-24T01:13:18;21.95;;;19.75;;
24357;SDS011;13668;52.154;5.580;2022-08-24T01:15:45;21.40;;;19.10;;
24357;SDS011;13668;52.154;5.580;2022-08-24T01:18:15;23.25;;;20.98;;
24357;SDS011;13668;52.154;5.580;2022-08-24T01:23:37;22.73;;;20.48;;
24357;SDS011;13668;52.154;5.580;2022-08-24T01:26:04;22.67;;;20.35;;
24357;SDS011;13668;52.154;5.580;2022-08-24T01:28:31;22.88;;;20.55;;
24357;SDS011;13668;52.154;5.580;2022-08-24T01:30:57;23.67;;;21.17;;
24357;SDS011;13668;52.154;5.580;2022-08-24T01:33:25;22.02;;;19.77;;
24357;SDS011;13668;52.154;5.580;2022-08-24T01:35:53;22.27;;;20.02;;
24357;SDS011;13668;52.154;5.580;2022-08-24T01:38:22;23.73;;;21.23;;
24357;SDS011;13668;52.154;5.580;2022-08-24T01:40:49;22.70;;;20.40;;
24357;SDS011;13668;52.154;5.580;2022-08-24T01:43:17;23.52;;;20.23;;
24357;SDS011;13668;52.154;5.580;2022-08-24T01:45:43;21.77;;;18.83;;
24357;SDS011;13668;52.154;5.580;2022-08-24T01:48:09;22.25;;;20.05;;
24357;SDS011;13668;52.154;5.580;2022-08-24T01:50:35;21.13;;;18.88;;
24357;SDS011;13668;52.154;5.580;2022-08-24T01:53:03;23.60;;;19.95;;
24357;SDS011;13668;52.154;5.580;2022-08-24T01:55:29;21.40;;;19.30;;
24357;SDS011;13668;52.154;5.580;2022-08-24T01:57:56;22.42;;;19.02;;
24357;SDS011;13668;52.154;5.580;2022-08-24T02:00:22;21.02;;;18.92;;
24357;SDS011;13668;52.154;5.580;2022-08-24T02:02:48;21.88;;;18.00;;
24357;SDS011;13668;52.154;5.580;2022-08-24T02:05:14;20.35;;;17.92;;
24357;SDS011;13668;52.154;5.580;2022-08-24T02:07:41;19.70;;;17.35;;
24357;SDS011;13668;52.154;5.580;2022-08-24T02:10:10;21.85;;;19.08;;
24357;SDS011;13668;52.154;5.580;2022-08-24T02:12:36;20.17;;;18.08;;
24357;SDS011;13668;52.154;5.580;2022-08-24T02:15:05;20.25;;;18.08;;
24357;SDS011;13668;52.154;5.580;2022-08-24T02:17:32;20.10;;;18.05;;
24357;SDS011;13668;52.154;5.580;2022-08-24T02:19:58;25.05;;;18.67;;
24357;SDS011;13668;52.154;5.580;2022-08-24T02:22:25;21.05;;;18.42;;
24357;SDS011;13668;52.154;5.580;2022-08-24T02:24:51;21.25;;;19.10;;
24357;SDS011;13668;52.154;5.580;2022-08-24T02:27:17;18.92;;;17.10;;
24357;SDS011;13668;52.154;5.580;2022-08-24T02:29:43;19.75;;;17.17;;
24357;SDS011;13668;52.154;5.580;2022-08-24T02:32:10;20.08;;;18.05;;
24357;SDS011;13668;52.154;5.580;2022-08-24T02:34:36;20.63;;;17.40;;
24357;SDS011;13668;52.154;5.580;2022-08-24T02:37:04;22.10;;;18.25;;
24357;SDS011;13668;52.154;5.580;2022-08-24T02:39:30;20.77;;;18.77;;
24357;SDS011;13668;52.154;5.580;2022-08-24T02:41:56;20.48;;;18.48;;
24357;SDS011;13668;52.154;5.580;2022-08-24T02:44:22;22.13;;;19.45;;
24357;SDS011;13668;52.154;5.580;2022-08-24T02:46:48;19.80;;;17.70;;
24357;SDS011;13668;52.154;5.580;2022-08-24T02:49:14;19.40;;;17.35;;
24357;SDS011;13668;52.154;5.580;2022-08-24T02:51:41;22.35;;;18.70;;
24357;SDS011;13668;52.154;5.580;2022-08-24T02:54:08;19.73;;;17.73;;
24357;SDS011;13668;52.154;5.580;2022-08-24T02:56:34;21.50;;;19.30;;
24357;SDS011;13668;52.154;5.580;2022-08-24T02:59:00;19.67;;;17.67;;
24357;SDS011;13668;52.154;5.580;2022-08-24T03:01:27;20.45;;;17.52;;
24357;SDS011;13668;52.154;5.580;2022-08-24T03:03:54;21.55;;;17.80;;
24357;SDS011;13668;52.154;5.580;2022-08-24T03:06:20;18.25;;;16.65;;
24357;SDS011;13668;52.154;5.580;2022-08-24T03:08:46;19.77;;;17.77;;
24357;SDS011;13668;52.154;5.580;2022-08-24T03:11:12;18.55;;;16.52;;
24357;SDS011;13668;52.154;5.580;2022-08-24T03:13:38;21.73;;;17.52;;
24357;SDS011;13668;52.154;5.580;2022-08-24T03:16:05;19.73;;;17.73;;
24357;SDS011;13668;52.154;5.580;2022-08-24T03:18:31;21.58;;;19.38;;
24357;SDS011;13668;52.154;5.580;2022-08-24T03:20:58;22.45;;;20.17;;
24357;SDS011;13668;52.154;5.580;2022-08-24T03:23:24;21.30;;;19.13;;
24357;SDS011;13668;52.154;5.580;2022-08-24T03:25:51;21.95;;;19.63;;
24357;SDS011;13668;52.154;5.580;2022-08-24T03:28:19;21.70;;;19.50;;
24357;SDS011;13668;52.154;5.580;2022-08-24T03:30:45;21.08;;;18.90;;
24357;SDS011;13668;52.154;5.580;2022-08-24T03:33:11;20.63;;;18.52;;
24357;SDS011;13668;52.154;5.580;2022-08-24T03:35:37;20.50;;;18.42;;
24357;SDS011;13668;52.154;5.580;2022-08-24T03:38:03;24.67;;;19.23;;
24357;SDS011;13668;52.154;5.580;2022-08-24T03:40:30;20.40;;;18.25;;
24357;SDS011;13668;52.154;5.580;2022-08-24T03:42:57;19.33;;;17.35;;
24357;SDS011;13668;52.154;5.580;2022-08-24T03:45:23;20.85;;;18.52;;
24357;SDS011;13668;52.154;5.580;2022-08-24T03:47:49;19.80;;;17.85;;
24357;SDS011;13668;52.154;5.580;2022-08-24T03:50:15;20.67;;;18.48;;
24357;SDS011;13668;52.154;5.580;2022-08-24T03:52:41;19.65;;;17.83;;
24357;SDS011;13668;52.154;5.580;2022-08-24T03:55:07;22.00;;;19.77;;
24357;SDS011;13668;52.154;5.580;2022-08-24T03:57:34;22.50;;;19.83;;
24357;SDS011;13668;52.154;5.580;2022-08-24T04:00:00;20.08;;;18.08;;
24357;SDS011;13668;52.154;5.580;2022-08-24T04:02:26;19.88;;;17.90;;
24357;SDS011;13668;52.154;5.580;2022-08-24T04:04:52;18.98;;;17.13;;
24357;SDS011;13668;52.154;5.580;2022-08-24T04:07:18;20.00;;;18.15;;
24357;SDS011;13668;52.154;5.580;2022-08-24T04:09:44;21.90;;;19.80;;
24357;SDS011;13668;52.154;5.580;2022-08-24T04:12:10;21.70;;;19.45;;
24357;SDS011;13668;52.154;5.580;2022-08-24T04:14:36;22.40;;;20.15;;
24357;SDS011;13668;52.154;5.580;2022-08-24T04:17:04;22.05;;;19.83;;
24357;SDS011;13668;52.154;5.580;2022-08-24T04:19:30;21.63;;;19.52;;
24357;SDS011;13668;52.154;5.580;2022-08-24T04:21:55;22.08;;;19.77;;
24357;SDS011;13668;52.154;5.580;2022-08-24T04:24:23;21.35;;;19.25;;
24357;SDS011;13668;52.154;5.580;2022-08-24T04:26:49;22.30;;;20.15;;
24357;SDS011;13668;52.154;5.580;2022-08-24T04:29:15;22.92;;;20.52;;
24357;SDS011;13668;52.154;5.580;2022-08-24T04:31:41;23.67;;;20.95;;
24357;SDS011;13668;52.154;5.580;2022-08-24T04:34:08;23.38;;;20.98;;
24357;SDS011;13668;52.154;5.580;2022-08-24T04:36:34;24.00;;;21.52;;
24357;SDS011;13668;52.154;5.580;2022-08-24T04:39:00;23.65;;;21.30;;
24357;SDS011;13668;52.154;5.580;2022-08-24T04:41:26;24.27;;;21.88;;
24357;SDS011;13668;52.154;5.580;2022-08-24T04:43:52;25.00;;;22.60;;
24357;SDS011;13668;52.154;5.580;2022-08-24T04:46:18;24.98;;;22.58;;
24357;SDS011;13668;52.154;5.580;2022-08-24T04:48:45;25.80;;;23.30;;
24357;SDS011;13668;52.154;5.580;2022-08-24T04:51:13;25.25;;;22.77;;
24357;SDS011;13668;52.154;5.580;2022-08-24T04:53:39;31.75;;;23.83;;
24357;SDS011;13668;52.154;5.580;2022-08-24T04:56:09;27.95;;;24.90;;
24357;SDS011;13668;52.154;5.580;2022-08-24T04:58:36;28.83;;;25.85;;
24357;SDS011;13668;52.154;5.580;2022-08-24T05:01:07;27.95;;;25.17;;
24357;SDS011;13668;52.154;5.580;2022-08-24T05:03:33;27.55;;;24.60;;
24357;SDS011;13668;52.154;5.580;2022-08-24T05:05:59;26.27;;;23.60;;
24357;SDS011;13668;52.154;5.580;2022-08-24T05:08:25;26.48;;;23.90;;
24357;SDS011;13668;52.154;5.580;2022-08-24T05:10:51;25.92;;;23.27;;
24357;SDS011;13668;52.154;5.580;2022-08-24T05:13:17;26.20;;;23.58;;
24357;SDS011;13668;52.154;5.580;2022-08-24T05:15:46;25.23;;;22.83;;
24357;SDS011;13668;52.154;5.580;2022-08-24T05:18:15;26.13;;;23.23;;
24357;SDS011;13668;52.154;5.580;2022-08-24T05:20:42;23.65;;;21.27;;
24357;SDS011;13668;52.154;5.580;2022-08-24T05:23:09;25.52;;;22.65;;
24357;SDS011;13668;52.154;5.580;2022-08-24T05:25:51;24.17;;;21.80;;
24357;SDS011;13668;52.154;5.580;2022-08-24T05:38:08;28.30;;;25.27;;
24357;SDS011;13668;52.154;5.580;2022-08-24T05:47:17;26.33;;;23.63;;
24357;SDS011;13668;52.154;5.580;2022-08-24T06:02:55;30.45;;;24.55;;
24357;SDS011;13668;52.154;5.580;2022-08-24T06:06:27;29.95;;;25.42;;
24357;SDS011;13668;52.154;5.580;2022-08-24T06:08:56;27.25;;;24.45;;
24357;SDS011;13668;52.154;5.580;2022-08-24T06:11:25;26.92;;;24.02;;
24357;SDS011;13668;52.154;5.580;2022-08-24T06:16:52;27.38;;;24.58;;
24357;SDS011;13668;52.154;5.580;2022-08-24T06:19:19;24.55;;;22.05;;
24357;SDS011;13668;52.154;5.580;2022-08-24T06:21:46;27.30;;;24.55;;
24357;SDS011;13668;52.154;5.580;2022-08-24T06:24:22;32.42;;;28.20;;
24357;SDS011;13668;52.154;5.580;2022-08-24T06:27:08;31.38;;;27.50;;
24357;SDS011;13668;52.154;5.580;2022-08-24T06:29:57;28.15;;;25.27;;
24357;SDS011;13668;52.154;5.580;2022-08-24T06:32:24;30.67;;;26.58;;
24357;SDS011;13668;52.154;5.580;2022-08-24T06:34:50;34.05;;;28.67;;
24357;SDS011;13668;52.154;5.580;2022-08-24T06:37:40;34.42;;;28.10;;
24357;SDS011;13668;52.154;5.580;2022-08-24T06:40:07;29.50;;;26.40;;
24357;SDS011;13668;52.154;5.580;2022-08-24T06:42:41;35.55;;;31.80;;
24357;SDS011;13668;52.154;5.580;2022-08-24T06:45:07;38.38;;;30.60;;
24357;SDS011;13668;52.154;5.580;2022-08-24T06:47:33;35.53;;;30.33;;
24357;SDS011;13668;52.154;5.580;2022-08-24T06:49:59;34.38;;;28.15;;
24357;SDS011;13668;52.154;5.580;2022-08-24T06:52:28;30.30;;;25.55;;
24357;SDS011;13668;52.154;5.580;2022-08-24T06:54:54;28.33;;;25.08;;
24357;SDS011;13668;52.154;5.580;2022-08-24T06:57:20;28.65;;;25.33;;
24357;SDS011;13668;52.154;5.580;2022-08-24T07:00:16;32.25;;;23.85;;
24357;SDS011;13668;52.154;5.580;2022-08-24T07:02:42;22.88;;;20.40;;
24357;SDS011;13668;52.154;5.580;2022-08-24T07:05:08;23.75;;;20.55;;
24357;SDS011;13668;52.154;5.580;2022-08-24T07:07:34;19.35;;;17.00;;
24357;SDS011;13668;52.154;5.580;2022-08-24T07:10:00;17.10;;;15.30;;
24357;SDS011;13668;52.154;5.580;2022-08-24T07:12:44;19.60;;;16.85;;
24357;SDS011;13668;52.154;5.580;2022-08-24T07:15:10;15.75;;;14.20;;
24357;SDS011;13668;52.154;5.580;2022-08-24T07:17:45;16.63;;;14.80;;
24357;SDS011;13668;52.154;5.580;2022-08-24T07:20:11;15.65;;;14.10;;
24357;SDS011;13668;52.154;5.580;2022-08-24T07:22:38;16.63;;;13.77;;
24357;SDS011;13668;52.154;5.580;2022-08-24T07:25:04;15.25;;;13.75;;
24357;SDS011;13668;52.154;5.580;2022-08-24T07:27:32;15.05;;;13.43;;
24357;SDS011;13668;52.154;5.580;2022-08-24T07:30:01;15.07;;;13.57;;
24357;SDS011;13668;52.154;5.580;2022-08-24T07:32:44;15.38;;;12.98;;
24357;SDS011;13668;52.154;5.580;2022-08-24T07:35:16;15.75;;;14.15;;
24357;SDS011;13668;52.154;5.580;2022-08-24T07:37:42;14.38;;;12.68;;
24357;SDS011;13668;52.154;5.580;2022-08-24T07:40:11;13.85;;;12.55;;
24357;SDS011;13668;52.154;5.580;2022-08-24T07:42:40;16.23;;;14.60;;
24357;SDS011;13668;52.154;5.580;2022-08-24T07:45:08;15.13;;;13.57;;
24357;SDS011;13668;52.154;5.580;2022-08-24T07:47:37;15.13;;;13.73;;
24357;SDS011;13668;52.154;5.580;2022-08-24T07:50:04;14.70;;;11.88;;
24357;SDS011;13668;52.154;5.580;2022-08-24T07:52:33;15.05;;;13.52;;
24357;SDS011;13668;52.154;5.580;2022-08-24T07:55:05;14.68;;;13.20;;
24357;SDS011;13668;52.154;5.580;2022-08-24T07:57:34;17.58;;;14.75;;
24357;SDS011;13668;52.154;5.580;2022-08-24T08:00:03;17.08;;;14.90;;
24357;SDS011;13668;52.154;5.580;2022-08-24T08:02:33;15.32;;;13.90;;
24357;SDS011;13668;52.154;5.580;2022-08-24T08:04:59;15.30;;;13.70;;
24357;SDS011;13668;52.154;5.580;2022-08-24T08:07:25;13.70;;;12.07;;
24357;SDS011;13668;52.154;5.580;2022-08-24T08:09:51;14.95;;;13.25;;
24357;SDS011;13668;52.154;5.580;2022-08-24T08:12:17;14.57;;;13.23;;
24357;SDS011;13668;52.154;5.580;2022-08-24T08:14:43;16.10;;;14.07;;
24357;SDS011;13668;52.154;5.580;2022-08-24T08:17:09;14.70;;;13.13;;
24357;SDS011;13668;52.154;5.580;2022-08-24T08:19:40;14.25;;;12.77;;
24357;SDS011;13668;52.154;5.580;2022-08-24T08:22:07;16.65;;;15.02;;
24357;SDS011;13668;52.154;5.580;2022-08-24T08:24:52;17.35;;;14.50;;
24357;SDS011;13668;52.154;5.580;2022-08-24T08:27:18;18.10;;;12.82;;
24357;SDS011;13668;52.154;5.580;2022-08-24T08:29:45;15.63;;;12.95;;
24357;SDS011;13668;52.154;5.580;2022-08-24T08:35:10;9.80;;;8.75;;
24357;SDS011;13668;52.154;5.580;2022-08-24T08:37:35;9.38;;;8.38;;
24357;SDS011;13668;52.154;5.580;2022-08-24T08:40:08;11.85;;;10.75;;
24357;SDS011;13668;52.154;5.580;2022-08-24T08:42:40;10.05;;;9.02;;
24357;SDS011;13668;52.154;5.580;2022-08-24T08:45:11;9.90;;;7.82;;
24357;SDS011;13668;52.154;5.580;2022-08-24T08:50:24;11.93;;;9.30;;
24357;SDS011;13668;52.154;5.580;2022-08-24T08:53:16;8.00;;;7.25;;
24357;SDS011;13668;52.154;5.580;2022-08-24T09:17:03;10.63;;;9.70;;
24357;SDS011;13668;52.154;5.580;2022-08-24T09:22:18;7.10;;;6.07;;
24357;SDS011;13668;52.154;5.580;2022-08-24T09:29:50;9.90;;;8.02;;
24357;SDS011;13668;52.154;5.580;2022-08-24T09:35:02;8.75;;;7.25;;
24357;SDS011;13668;52.154;5.580;2022-08-24T09:37:49;9.13;;;8.00;;
24357;SDS011;13668;52.154;5.580;2022-08-24T10:01:42;5.07;;;2.83;;
24357;SDS011;13668;52.154;5.580;2022-08-24T10:07:46;7.22;;;4.18;;
24357;SDS011;13668;52.154;5.580;2022-08-24T10:15:22;3.80;;;1.88;;
24357;SDS011;13668;52.154;5.580;2022-08-24T10:26:21;5.28;;;2.83;;
24357;SDS011;13668;52.154;5.580;2022-08-24T10:36:46;2.10;;;1.83;;
24357;SDS011;13668;52.154;5.580;2022-08-24T10:39:25;2.22;;;2.05;;
24357;SDS011;13668;52.154;5.580;2022-08-24T10:45:26;2.13;;;1.67;;
24357;SDS011;13668;52.154;5.580;2022-08-24T10:53:54;5.18;;;2.33;;
24357;SDS011;13668;52.154;5.580;2022-08-24T10:56:41;2.40;;;1.63;;
24357;SDS011;13668;52.154;5.580;2022-08-24T10:59:17;2.30;;;1.35;;
24357;SDS011;13668;52.154;5.580;2022-08-24T11:02:04;1.42;;;1.20;;
24357;SDS011;13668;52.154;5.580;2022-08-24T11:04:40;1.88;;;1.23;;
24357;SDS011;13668;52.154;5.580;2022-08-24T11:07:17;1.17;;;1.08;;
24357;SDS011;13668;52.154;5.580;2022-08-24T11:10:08;1.60;;;1.30;;
24357;SDS011;13668;52.154;5.580;2022-08-24T11:12:40;1.50;;;1.40;;
24357;SDS011;13668;52.154;5.580;2022-08-24T11:17:54;1.02;;;0.73;;
24357;SDS011;13668;52.154;5.580;2022-08-24T11:20:27;1.15;;;1.08;;
24357;SDS011;13668;52.154;5.580;2022-08-24T11:23:04;1.63;;;1.40;;
24357;SDS011;13668;52.154;5.580;2022-08-24T11:25:32;1.40;;;1.30;;
24357;SDS011;13668;52.154;5.580;2022-08-24T11:28:06;1.13;;;1.00;;
24357;SDS011;13668;52.154;5.580;2022-08-24T11:30:39;1.65;;;1.08;;
24357;SDS011;13668;52.154;5.580;2022-08-24T11:33:16;2.00;;;1.17;;
24357;SDS011;13668;52.154;5.580;2022-08-24T11:36:19;1.20;;;1.10;;
24357;SDS011;13668;52.154;5.580;2022-08-24T11:38:47;2.72;;;1.10;;
24357;SDS011;13668;52.154;5.580;2022-08-24T11:43:50;4.75;;;1.38;;
24357;SDS011;13668;52.154;5.580;2022-08-24T11:49:02;1.45;;;1.17;;
24357;SDS011;13668;52.154;5.580;2022-08-24T11:51:53;1.73;;;1.30;;
24357;SDS011;13668;52.154;5.580;2022-08-24T11:54:35;1.52;;;1.23;;
24357;SDS011;13668;52.154;5.580;2022-08-24T12:04:52;1.27;;;0.98;;
24357;SDS011;13668;52.154;5.580;2022-08-24T12:08:02;2.03;;;1.20;;
24357;SDS011;13668;52.154;5.580;2022-08-24T12:12:51;2.75;;;1.35;;
24357;SDS011;13668;52.154;5.580;2022-08-24T12:15:25;1.92;;;0.85;;
24357;SDS011;13668;52.154;5.580;2022-08-24T12:18:37;1.40;;;1.02;;
24357;SDS011;13668;52.154;5.580;2022-08-24T12:20:42;2.42;;;0.98;;
24357;SDS011;13668;52.154;5.580;2022-08-24T12:23:13;2.75;;;1.50;;
24357;SDS011;13668;52.154;5.580;2022-08-24T12:25:41;2.40;;;1.10;;
24357;SDS011;13668;52.154;5.580;2022-08-24T12:28:43;0.95;;;0.82;;
24357;SDS011;13668;52.154;5.580;2022-08-24T12:31:18;1.42;;;1.20;;
24357;SDS011;13668;52.154;5.580;2022-08-24T12:33:47;2.50;;;0.90;;
24357;SDS011;13668;52.154;5.580;2022-08-24T12:36:24;2.60;;;1.02;;
24357;SDS011;13668;52.154;5.580;2022-08-24T12:38:54;1.10;;;1.10;;
24357;SDS011;13668;52.154;5.580;2022-08-24T12:41:32;1.77;;;0.95;;
24357;SDS011;13668;52.154;5.580;2022-08-24T12:44:06;2.75;;;1.00;;
24357;SDS011;13668;52.154;5.580;2022-08-24T12:46:38;1.77;;;0.90;;
24357;SDS011;13668;52.154;5.580;2022-08-24T12:51:55;1.20;;;1.10;;
24357;SDS011;13668;52.154;5.580;2022-08-24T13:05:46;0.90;;;0.90;;
24357;SDS011;13668;52.154;5.580;2022-08-24T13:11:33;1.10;;;0.88;;
24357;SDS011;13668;52.154;5.580;2022-08-24T13:23:21;1.02;;;0.68;;
24357;SDS011;13668;52.154;5.580;2022-08-24T13:26:27;1.80;;;0.88;;
24357;SDS011;13668;52.154;5.580;2022-08-24T13:34:47;1.00;;;0.93;;
24357;SDS011;13668;52.154;5.580;2022-08-24T13:42:37;0.98;;;0.98;;
24357;SDS011;13668;52.154;5.580;2022-08-24T13:50:41;1.02;;;0.85;;
24357;SDS011;13668;52.154;5.580;2022-08-24T13:59:00;2.08;;;1.08;;
24357;SDS011;13668;52.154;5.580;2022-08-24T14:20:29;1.38;;;1.20;;
24357;SDS011;13668;52.154;5.580;2022-08-24T14:37:58;1.13;;;1.02;;
24357;SDS011;13668;52.154;5.580;2022-08-24T14:46:22;1.23;;;0.90;;
24357;SDS011;13668;52.154;5.580;2022-08-24T14:48:52;1.35;;;1.10;;
24357;SDS011;13668;52.154;5.580;2022-08-24T15:08:12;2.15;;;1.00;;
24357;SDS011;13668;52.154;5.580;2022-08-24T15:14:11;1.45;;;1.30;;
24357;SDS011;13668;52.154;5.580;2022-08-24T15:16:47;2.63;;;1.35;;
24357;SDS011;13668;52.154;5.580;2022-08-24T15:30:40;1.75;;;1.10;;
24357;SDS011;13668;52.154;5.580;2022-08-24T15:49:52;3.50;;;1.08;;
24357;SDS011;13668;52.154;5.580;2022-08-24T15:52:36;1.58;;;1.30;;
24357;SDS011;13668;52.154;5.580;2022-08-24T15:55:04;2.25;;;1.60;;
24357;SDS011;13668;52.154;5.580;2022-08-24T15:57:48;3.22;;;1.33;;
24357;SDS011;13668;52.154;5.580;2022-08-24T16:00:15;1.35;;;1.17;;
24357;SDS011;13668;52.154;5.580;2022-08-24T16:03:18;1.35;;;0.90;;
24357;SDS011;13668;52.154;5.580;2022-08-24T16:05:44;0.95;;;0.95;;
24357;SDS011;13668;52.154;5.580;2022-08-24T16:08:10;1.35;;;1.25;;
24357;SDS011;13668;52.154;5.580;2022-08-24T16:10:45;6.50;;;1.55;;
24357;SDS011;13668;52.154;5.580;2022-08-24T16:13:14;2.67;;;1.75;;
24357;SDS011;13668;52.154;5.580;2022-08-24T16:16:03;2.38;;;1.63;;
24357;SDS011;13668;52.154;5.580;2022-08-24T16:21:56;1.90;;;1.80;;
24357;SDS011;13668;52.154;5.580;2022-08-24T16:24:07;3.00;;;2.70;;
24357;SDS011;13668;52.154;5.580;2022-08-24T16:26:50;3.40;;;2.13;;
24357;SDS011;13668;52.154;5.580;2022-08-24T16:34:46;4.93;;;2.50;;
24357;SDS011;13668;52.154;5.580;2022-08-24T16:37:13;3.58;;;2.70;;
24357;SDS011;13668;52.154;5.580;2022-08-24T16:39:40;3.45;;;2.63;;
24357;SDS011;13668;52.154;5.580;2022-08-24T16:42:09;2.33;;;2.13;;
24357;SDS011;13668;52.154;5.580;2022-08-24T16:44:39;5.78;;;2.00;;
24357;SDS011;13668;52.154;5.580;2022-08-24T16:47:06;3.53;;;2.25;;
24357;SDS011;13668;52.154;5.580;2022-08-24T16:49:32;2.45;;;2.22;;
24357;SDS011;13668;52.154;5.580;2022-08-24T16:51:58;2.97;;;2.38;;
24357;SDS011;13668;52.154;5.580;2022-08-24T16:54:27;3.83;;;1.88;;
24357;SDS011;13668;52.154;5.580;2022-08-24T16:56:53;3.03;;;2.40;;
24357;SDS011;13668;52.154;5.580;2022-08-24T16:59:28;4.15;;;2.08;;
24357;SDS011;13668;52.154;5.580;2022-08-24T17:01:55;3.08;;;2.28;;
24357;SDS011;13668;52.154;5.580;2022-08-24T17:04:22;3.05;;;2.65;;
24357;SDS011;13668;52.154;5.580;2022-08-24T17:06:48;2.75;;;2.53;;
24357;SDS011;13668;52.154;5.580;2022-08-24T17:09:14;2.72;;;2.50;;
24357;SDS011;13668;52.154;5.580;2022-08-24T17:11:40;4.40;;;2.92;;
24357;SDS011;13668;52.154;5.580;2022-08-24T17:14:06;2.58;;;2.38;;
24357;SDS011;13668;52.154;5.580;2022-08-24T17:16:33;3.22;;;2.83;;
24357;SDS011;13668;52.154;5.580;2022-08-24T17:18:59;3.45;;;2.88;;
24357;SDS011;13668;52.154;5.580;2022-08-24T17:21:26;4.40;;;2.58;;
24357;SDS011;13668;52.154;5.580;2022-08-24T17:23:52;3.78;;;2.90;;
24357;SDS011;13668;52.154;5.580;2022-08-24T17:26:18;2.47;;;2.20;;
24357;SDS011;13668;52.154;5.580;2022-08-24T17:28:44;3.28;;;2.78;;
24357;SDS011;13668;52.154;5.580;2022-08-24T17:31:13;7.78;;;2.90;;
24357;SDS011;13668;52.154;5.580;2022-08-24T17:33:39;2.63;;;2.42;;
24357;SDS011;13668;52.154;5.580;2022-08-24T17:36:06;4.05;;;2.67;;
24357;SDS011;13668;52.154;5.580;2022-08-24T17:38:42;4.03;;;2.40;;
24357;SDS011;13668;52.154;5.580;2022-08-24T17:41:12;3.85;;;2.70;;
24357;SDS011;13668;52.154;5.580;2022-08-24T17:43:38;2.63;;;2.42;;
24357;SDS011;13668;52.154;5.580;2022-08-24T17:46:05;2.38;;;2.05;;
24357;SDS011;13668;52.154;5.580;2022-08-24T17:48:31;2.83;;;2.50;;
24357;SDS011;13668;52.154;5.580;2022-08-24T17:50:59;6.50;;;2.60;;
24357;SDS011;13668;52.154;5.580;2022-08-24T17:53:25;2.25;;;2.05;;
24357;SDS011;13668;52.154;5.580;2022-08-24T17:55:51;2.85;;;2.30;;
24357;SDS011;13668;52.154;5.580;2022-08-24T17:58:17;2.80;;;1.80;;
24357;SDS011;13668;52.154;5.580;2022-08-24T18:00:43;3.40;;;2.20;;
24357;SDS011;13668;52.154;5.580;2022-08-24T18:03:10;6.00;;;2.28;;
24357;SDS011;13668;52.154;5.580;2022-08-24T18:05:36;2.28;;;2.08;;
24357;SDS011;13668;52.154;5.580;2022-08-24T18:08:02;2.45;;;2.25;;
24357;SDS011;13668;52.154;5.580;2022-08-24T18:10:29;2.65;;;2.00;;
24357;SDS011;13668;52.154;5.580;2022-08-24T18:12:59;2.33;;;1.70;;
24357;SDS011;13668;52.154;5.580;2022-08-24T18:15:29;4.63;;;2.13;;
24357;SDS011;13668;52.154;5.580;2022-08-24T18:17:56;2.50;;;2.08;;
24357;SDS011;13668;52.154;5.580;2022-08-24T18:20:23;1.85;;;1.65;;
24357;SDS011;13668;52.154;5.580;2022-08-24T18:22:50;1.88;;;1.77;;
24357;SDS011;13668;52.154;5.580;2022-08-24T18:25:17;1.70;;;1.60;;
24357;SDS011;13668;52.154;5.580;2022-08-24T18:27:44;2.63;;;1.88;;
24357;SDS011;13668;52.154;5.580;2022-08-24T18:30:16;3.42;;;2.30;;
24357;SDS011;13668;52.154;5.580;2022-08-24T18:32:44;3.20;;;2.33;;
24357;SDS011;13668;52.154;5.580;2022-08-24T18:35:10;2.22;;;1.70;;
24357;SDS011;13668;52.154;5.580;2022-08-24T18:37:36;4.68;;;1.73;;
24357;SDS011;13668;52.154;5.580;2022-08-24T18:40:03;3.70;;;2.00;;
24357;SDS011;13668;52.154;5.580;2022-08-24T18:42:29;1.75;;;1.65;;
24357;SDS011;13668;52.154;5.580;2022-08-24T18:44:56;2.30;;;1.92;;
24357;SDS011;13668;52.154;5.580;2022-08-24T18:47:22;1.90;;;1.80;;
24357;SDS011;13668;52.154;5.580;2022-08-24T18:49:48;2.92;;;2.15;;
24357;SDS011;13668;52.154;5.580;2022-08-24T18:52:17;1.80;;;1.70;;
24357;SDS011;13668;52.154;5.580;2022-08-24T18:54:44;3.22;;;1.67;;
24357;SDS011;13668;52.154;5.580;2022-08-24T18:57:12;3.25;;;2.15;;
24357;SDS011;13668;52.154;5.580;2022-08-24T18:59:38;2.17;;;2.08;;
24357;SDS011;13668;52.154;5.580;2022-08-24T19:02:07;3.20;;;2.45;;
24357;SDS011;13668;52.154;5.580;2022-08-24T19:04:53;3.47;;;2.70;;
24357;SDS011;13668;52.154;5.580;2022-08-24T19:07:19;3.97;;;2.38;;
24357;SDS011;13668;52.154;5.580;2022-08-24T19:09:46;5.15;;;2.80;;
24357;SDS011;13668;52.154;5.580;2022-08-24T19:12:12;3.78;;;2.78;;
24357;SDS011;13668;52.154;5.580;2022-08-24T19:14:38;4.00;;;2.70;;
24357;SDS011;13668;52.154;5.580;2022-08-24T19:17:04;3.60;;;3.15;;
24357;SDS011;13668;52.154;5.580;2022-08-24T19:19:30;3.53;;;2.78;;
24357;SDS011;13668;52.154;5.580;2022-08-24T19:21:57;3.30;;;3.10;;
24357;SDS011;13668;52.154;5.580;2022-08-24T19:24:25;4.00;;;3.63;;
24357;SDS011;13668;52.154;5.580;2022-08-24T19:26:52;3.83;;;3.17;;
24357;SDS011;13668;52.154;5.580;2022-08-24T19:29:18;4.10;;;3.35;;
24357;SDS011;13668;52.154;5.580;2022-08-24T19:31:44;4.65;;;2.80;;
24357;SDS011;13668;52.154;5.580;2022-08-24T19:34:11;2.80;;;2.60;;
24357;SDS011;13668;52.154;5.580;2022-08-24T19:36:38;3.83;;;2.70;;
24357;SDS011;13668;52.154;5.580;2022-08-24T19:39:04;2.70;;;2.50;;
24357;SDS011;13668;52.154;5.580;2022-08-24T19:41:31;4.78;;;2.53;;
24357;SDS011;13668;52.154;5.580;2022-08-24T19:44:00;2.35;;;2.15;;